PWSweather.com
Personal Weather Stations
Station Observations
K4FB1
Clubhouse Heritage, Lakeland, FL 33812

Clubhouse HeritageLakeland, FL 33812

Lat: 27.969224, Lon: -81.897769

Elevation: 145

Station Type: Davis Vantage Pro2

http://www.ClubhouseWX.com

Latest ConditionsUpdated 7:20:00 PM EDT Friday, Aug 26, 2016
Currently Today's Max Today's Min Today's Average
Temperature 78.2°F25.7°C 98.0°F36.7°C 75.1°F23.9°C 83.8°F28.8°C
Dew Point 75.7°F24.3°C 81.1°F27.3°C 72.2°F22.3°C 76.4°F24.7°C
Winds 1.0 mph NE1.6 kmh NE 8.0 mph NE12.9 kmh NE - 4.5 mph 7.2 kmh
Wind Gusts 3.0 mph4.8 kmh 21.0 mph33.8 kmh - -
Humidity 92% 95% 56% 80%
Pressure 29.93 in1013.5 mb 30.00 in1015.9 mb 29.89 in1012.2 mb -
Precipitation - 0.58 in14.7 mm - -
Hour Temp Dew Point Humidity Winds Wind Gusts Pressure Precip Precip Rate Daily Precip Total
07:20 PM 78.2°F25.7°C 75.7°F24.3°C 92% 1.0 mph NE1.6 kmh NE 3.0 mph4.8 kmh 29.93 in1013.5 mb 0.58 in14.7 mm 0.00 in0.0 mm 0.58 in14.7 mm
07:15 PM 78.1°F25.6°C 75.6°F24.2°C 92% 2.0 mph NE3.2 kmh NE 4.0 mph6.4 kmh 29.94 in1013.9 mb 0.58 in14.7 mm 0.00 in0.0 mm 0.58 in14.7 mm
07:10 PM 78.1°F25.6°C 75.3°F24.1°C 91% 2.0 mph NE3.2 kmh NE 5.0 mph8.0 kmh 29.93 in1013.5 mb 0.58 in14.7 mm 0.00 in0.0 mm 0.58 in14.7 mm
07:05 PM 78.1°F25.6°C 75.3°F24.1°C 91% 3.0 mph NE4.8 kmh NE 8.0 mph12.9 kmh 29.93 in1013.5 mb 0.58 in14.7 mm 0.00 in0.0 mm 0.58 in14.7 mm
07:00 PM 78.3°F25.7°C 74.8°F23.8°C 89% 5.0 mph NE8.0 kmh NE 14.0 mph22.5 kmh 29.93 in1013.5 mb 0.58 in14.7 mm 0.09 in2.3 mm 0.58 in14.7 mm
06:55 PM 79.2°F26.2°C 75.3°F24.1°C 88% 7.0 mph NE11.3 kmh NE 14.0 mph22.5 kmh 29.93 in1013.5 mb 0.50 in12.7 mm 1.80 in45.7 mm 0.50 in12.7 mm
06:50 PM 80.9°F27.2°C 76.0°F24.4°C 85% 8.0 mph NE12.9 kmh NE 18.0 mph29.0 kmh 29.93 in1013.5 mb 0.35 in8.9 mm 2.40 in61.0 mm 0.35 in8.9 mm
06:45 PM 83.4°F28.6°C 77.3°F25.2°C 82% 7.0 mph ENE11.3 kmh ENE 18.0 mph29.0 kmh 29.94 in1013.9 mb 0.15 in3.8 mm 1.80 in45.7 mm 0.15 in3.8 mm
06:40 PM 85.4°F29.7°C 77.8°F25.4°C 78% 5.0 mph E8.0 kmh E 15.0 mph24.1 kmh 29.93 in1013.5 mb 0.00 in0.0 mm 0.00 in0.0 mm 0.00 in0.0 mm
06:35 PM 86.1°F30.1°C 78.0°F25.6°C 77% 4.0 mph E6.4 kmh E 10.0 mph16.1 kmh 29.92 in1013.2 mb 0.00 in0.0 mm 0.00 in0.0 mm 0.00 in0.0 mm
06:30 PM 86.5°F30.3°C 78.0°F25.6°C 76% 3.0 mph E4.8 kmh E 10.0 mph16.1 kmh 29.91 in1012.9 mb 0.00 in0.0 mm 0.00 in0.0 mm 0.00 in0.0 mm
06:25 PM 86.8°F30.4°C 77.1°F25.1°C 73% 4.0 mph NE6.4 kmh NE 10.0 mph16.1 kmh 29.91 in1012.9 mb 0.00 in0.0 mm 0.00 in0.0 mm 0.00 in0.0 mm
06:20 PM 86.9°F30.5°C 76.8°F24.9°C 72% 5.0 mph NE8.0 kmh NE 10.0 mph16.1 kmh 29.91 in1012.9 mb 0.00 in0.0 mm 0.00 in0.0 mm 0.00 in0.0 mm
06:15 PM 87.3°F30.7°C 76.7°F24.8°C 71% 4.0 mph NE6.4 kmh NE 10.0 mph16.1 kmh 29.91 in1012.9 mb 0.00 in0.0 mm 0.00 in0.0 mm 0.00 in0.0 mm
06:10 PM 87.6°F30.9°C 76.6°F24.8°C 70% 4.0 mph NE6.4 kmh NE 12.0 mph19.3 kmh 29.91 in1012.9 mb 0.00 in0.0 mm 0.00 in0.0 mm 0.00 in0.0 mm
06:05 PM 87.9°F31.1°C 76.5°F24.7°C 69% 5.0 mph NE8.0 kmh NE 13.0 mph20.9 kmh 29.91 in1012.9 mb 0.00 in0.0 mm 0.00 in0.0 mm 0.00 in0.0 mm
06:00 PM 88.2°F31.2°C 76.3°F24.6°C 68% 6.0 mph NE9.7 kmh NE 13.0 mph20.9 kmh 29.91 in1012.9 mb 0.00 in0.0 mm 0.00 in0.0 mm 0.00 in0.0 mm
05:55 PM 88.6°F31.4°C 77.6°F25.3°C 70% 5.0 mph ENE8.0 kmh ENE 12.0 mph19.3 kmh 29.91 in1012.9 mb 0.00 in0.0 mm 0.00 in0.0 mm 0.00 in0.0 mm
05:50 PM 89.0°F31.7°C 77.5°F25.3°C 69% 6.0 mph ENE9.7 kmh ENE 21.0 mph33.8 kmh 29.90 in1012.5 mb 0.00 in0.0 mm 0.00 in0.0 mm 0.00 in0.0 mm
05:45 PM 89.5°F31.9°C 77.5°F25.3°C 68% 6.0 mph ENE9.7 kmh ENE 21.0 mph33.8 kmh 29.90 in1012.5 mb 0.00 in0.0 mm 0.00 in0.0 mm 0.00 in0.0 mm
05:40 PM 90.1°F32.3°C 77.7°F25.4°C 67% 5.0 mph NE8.0 kmh NE 12.0 mph19.3 kmh 29.90 in1012.5 mb 0.00 in0.0 mm 0.00 in0.0 mm 0.00 in0.0 mm
05:35 PM 90.8°F32.7°C 78.3°F25.7°C 67% 4.0 mph NE6.4 kmh NE 10.0 mph16.1 kmh 29.90 in1012.5 mb 0.00 in0.0 mm 0.00 in0.0 mm 0.00 in0.0 mm
05:30 PM 91.5°F33.1°C 78.5°F25.8°C 66% 4.0 mph ENE6.4 kmh ENE 10.0 mph16.1 kmh 29.90 in1012.5 mb 0.00 in0.0 mm 0.00 in0.0 mm 0.00 in0.0 mm
05:25 PM 92.1°F33.4°C 78.6°F25.9°C 65% 5.0 mph E8.0 kmh E 11.0 mph17.7 kmh 29.89 in1012.2 mb 0.00 in0.0 mm 0.00 in0.0 mm 0.00 in0.0 mm
05:20 PM 92.9°F33.8°C 78.4°F25.8°C 63% 5.0 mph ENE8.0 kmh ENE 14.0 mph22.5 kmh 29.89 in1012.2 mb 0.00 in0.0 mm 0.00 in0.0 mm 0.00 in0.0 mm
05:15 PM 93.5°F34.2°C 79.0°F26.1°C 63% 5.0 mph ENE8.0 kmh ENE 15.0 mph24.1 kmh 29.90 in1012.5 mb 0.00 in0.0 mm 0.00 in0.0 mm 0.00 in0.0 mm
05:10 PM 94.0°F34.4°C 79.0°F26.1°C 62% 6.0 mph ENE9.7 kmh ENE 15.0 mph24.1 kmh 29.90 in1012.5 mb 0.00 in0.0 mm 0.00 in0.0 mm 0.00 in0.0 mm
05:05 PM 94.4°F34.7°C 79.4°F26.3°C 62% 6.0 mph ENE9.7 kmh ENE 15.0 mph24.1 kmh 29.90 in1012.5 mb 0.00 in0.0 mm 0.00 in0.0 mm 0.00 in0.0 mm
05:00 PM 94.1°F34.5°C 79.1°F26.2°C 62% 8.0 mph ENE12.9 kmh ENE 16.0 mph25.7 kmh 29.90 in1012.5 mb 0.00 in0.0 mm 0.00 in0.0 mm 0.00 in0.0 mm
04:55 PM 94.3°F34.6°C 79.8°F26.6°C 63% 8.0 mph ENE12.9 kmh ENE 16.0 mph25.7 kmh 29.90 in1012.5 mb 0.00 in0.0 mm 0.00 in0.0 mm 0.00 in0.0 mm
04:50 PM 94.7°F34.8°C 79.2°F26.2°C 61% 6.0 mph ENE9.7 kmh ENE 16.0 mph25.7 kmh 29.90 in1012.5 mb 0.00 in0.0 mm 0.00 in0.0 mm 0.00 in0.0 mm
04:45 PM 94.4°F34.7°C 79.9°F26.6°C 63% 5.0 mph ENE8.0 kmh ENE 16.0 mph25.7 kmh 29.90 in1012.5 mb 0.00 in0.0 mm 0.00 in0.0 mm 0.00 in0.0 mm
04:40 PM 93.0°F33.9°C 79.0°F26.1°C 64% 6.0 mph NE9.7 kmh NE 15.0 mph24.1 kmh 29.89 in1012.2 mb 0.00 in0.0 mm 0.00 in0.0 mm 0.00 in0.0 mm
04:35 PM 91.8°F33.2°C 78.4°F25.8°C 65% 8.0 mph NE12.9 kmh NE 16.0 mph25.7 kmh 29.90 in1012.5 mb 0.00 in0.0 mm 0.00 in0.0 mm 0.00 in0.0 mm
04:30 PM 91.0°F32.8°C 78.1°F25.6°C 66% 6.0 mph NE9.7 kmh NE 16.0 mph25.7 kmh 29.90 in1012.5 mb 0.00 in0.0 mm 0.00 in0.0 mm 0.00 in0.0 mm
04:25 PM 90.7°F32.6°C 79.1°F26.2°C 69% 4.0 mph NE6.4 kmh NE 14.0 mph22.5 kmh 29.90 in1012.5 mb 0.00 in0.0 mm 0.00 in0.0 mm 0.00 in0.0 mm
04:20 PM 90.9°F32.7°C 78.4°F25.8°C 67% 5.0 mph ENE8.0 kmh ENE 18.0 mph29.0 kmh 29.91 in1012.9 mb 0.00 in0.0 mm 0.00 in0.0 mm 0.00 in0.0 mm
04:15 PM 92.2°F33.4°C 77.8°F25.4°C 63% 6.0 mph ENE9.7 kmh ENE 18.0 mph29.0 kmh 29.91 in1012.9 mb 0.00 in0.0 mm 0.00 in0.0 mm 0.00 in0.0 mm
04:10 PM 93.8°F34.3°C 77.8°F25.4°C 60% 7.0 mph ENE11.3 kmh ENE 17.0 mph27.4 kmh 29.90 in1012.5 mb 0.00 in0.0 mm 0.00 in0.0 mm 0.00 in0.0 mm
04:05 PM 95.4°F35.2°C 79.3°F26.3°C 60% 6.0 mph ENE9.7 kmh ENE 17.0 mph27.4 kmh 29.90 in1012.5 mb 0.00 in0.0 mm 0.00 in0.0 mm 0.00 in0.0 mm
04:00 PM 96.4°F35.8°C 78.7°F25.9°C 57% 5.0 mph ENE8.0 kmh ENE 17.0 mph27.4 kmh 29.90 in1012.5 mb 0.00 in0.0 mm 0.00 in0.0 mm 0.00 in0.0 mm
03:55 PM 96.3°F35.7°C 80.1°F26.7°C 60% 5.0 mph ENE8.0 kmh ENE 11.0 mph17.7 kmh 29.90 in1012.5 mb 0.00 in0.0 mm 0.00 in0.0 mm 0.00 in0.0 mm
03:50 PM 95.7°F35.4°C 79.6°F26.4°C 60% 5.0 mph NE8.0 kmh NE 11.0 mph17.7 kmh 29.91 in1012.9 mb 0.00 in0.0 mm 0.00 in0.0 mm 0.00 in0.0 mm
03:45 PM 95.7°F35.4°C 79.1°F26.2°C 59% 6.0 mph NE9.7 kmh NE 18.0 mph29.0 kmh 29.91 in1012.9 mb 0.00 in0.0 mm 0.00 in0.0 mm 0.00 in0.0 mm
03:40 PM 96.3°F35.7°C 79.6°F26.4°C 59% 6.0 mph NE9.7 kmh NE 18.0 mph29.0 kmh 29.91 in1012.9 mb 0.00 in0.0 mm 0.00 in0.0 mm 0.00 in0.0 mm
03:35 PM 96.8°F36.0°C 79.1°F26.2°C 57% 6.0 mph NE9.7 kmh NE 12.0 mph19.3 kmh 29.91 in1012.9 mb 0.00 in0.0 mm 0.00 in0.0 mm 0.00 in0.0 mm
03:30 PM 97.8°F36.6°C 79.4°F26.3°C 56% 6.0 mph NE9.7 kmh NE 12.0 mph19.3 kmh 29.91 in1012.9 mb 0.00 in0.0 mm 0.00 in0.0 mm 0.00 in0.0 mm
03:25 PM 98.0°F36.7°C 79.6°F26.4°C 56% 5.0 mph ENE8.0 kmh ENE 11.0 mph17.7 kmh 29.91 in1012.9 mb 0.00 in0.0 mm 0.00 in0.0 mm 0.00 in0.0 mm
03:20 PM 97.8°F36.6°C 79.4°F26.3°C 56% 5.0 mph ENE8.0 kmh ENE 13.0 mph20.9 kmh 29.91 in1012.9 mb 0.00 in0.0 mm 0.00 in0.0 mm 0.00 in0.0 mm
03:15 PM 96.8°F36.0°C 81.1°F27.3°C 61% 6.0 mph NE9.7 kmh NE 13.0 mph20.9 kmh 29.91 in1012.9 mb 0.00 in0.0 mm 0.00 in0.0 mm 0.00 in0.0 mm
03:10 PM 96.1°F35.6°C 80.5°F26.9°C 61% 6.0 mph NE9.7 kmh NE 11.0 mph17.7 kmh 29.91 in1012.9 mb 0.00 in0.0 mm 0.00 in0.0 mm 0.00 in0.0 mm
03:05 PM 95.8°F35.4°C 79.7°F26.5°C 60% 5.0 mph NE8.0 kmh NE 11.0 mph17.7 kmh 29.92 in1013.2 mb 0.00 in0.0 mm 0.00 in0.0 mm 0.00 in0.0 mm
03:00 PM 96.6°F35.9°C 78.9°F26.1°C 57% 5.0 mph ENE8.0 kmh ENE 12.0 mph19.3 kmh 29.92 in1013.2 mb 0.00 in0.0 mm 0.00 in0.0 mm 0.00 in0.0 mm
02:55 PM 97.9°F36.6°C 80.6°F27.0°C 58% 5.0 mph ENE8.0 kmh ENE 12.0 mph19.3 kmh 29.92 in1013.2 mb 0.00 in0.0 mm 0.00 in0.0 mm 0.00 in0.0 mm
02:50 PM 97.9°F36.6°C 80.1°F26.7°C 57% 4.0 mph NE6.4 kmh NE 11.0 mph17.7 kmh 29.92 in1013.2 mb 0.00 in0.0 mm 0.00 in0.0 mm 0.00 in0.0 mm
02:45 PM 96.8°F36.0°C 80.1°F26.7°C 59% 5.0 mph NE8.0 kmh NE 13.0 mph20.9 kmh 29.93 in1013.5 mb 0.00 in0.0 mm 0.00 in0.0 mm 0.00 in0.0 mm
02:40 PM 96.6°F35.9°C 80.4°F26.9°C 60% 5.0 mph NE8.0 kmh NE 13.0 mph20.9 kmh 29.93 in1013.5 mb 0.00 in0.0 mm 0.00 in0.0 mm 0.00 in0.0 mm
02:35 PM 97.3°F36.3°C 80.0°F26.7°C 58% 5.0 mph ENE8.0 kmh ENE 13.0 mph20.9 kmh 29.93 in1013.5 mb 0.00 in0.0 mm 0.00 in0.0 mm 0.00 in0.0 mm
02:30 PM 97.2°F36.2°C 80.5°F26.9°C 59% 4.0 mph ENE6.4 kmh ENE 10.0 mph16.1 kmh 29.93 in1013.5 mb 0.00 in0.0 mm 0.00 in0.0 mm 0.00 in0.0 mm
02:25 PM 97.5°F36.4°C 79.7°F26.5°C 57% 5.0 mph ENE8.0 kmh ENE 11.0 mph17.7 kmh 29.93 in1013.5 mb 0.00 in0.0 mm 0.00 in0.0 mm 0.00 in0.0 mm
02:20 PM 97.2°F36.2°C 79.4°F26.3°C 57% 5.0 mph ENE8.0 kmh ENE 11.0 mph17.7 kmh 29.94 in1013.9 mb 0.00 in0.0 mm 0.00 in0.0 mm 0.00 in0.0 mm
02:15 PM 96.7°F35.9°C 80.5°F26.9°C 60% 5.0 mph NE8.0 kmh NE 11.0 mph17.7 kmh 29.93 in1013.5 mb 0.00 in0.0 mm 0.00 in0.0 mm 0.00 in0.0 mm
02:10 PM 96.4°F35.8°C 79.7°F26.5°C 59% 4.0 mph ENE6.4 kmh ENE 10.0 mph16.1 kmh 29.94 in1013.9 mb 0.00 in0.0 mm 0.00 in0.0 mm 0.00 in0.0 mm
02:05 PM 96.5°F35.8°C 79.8°F26.6°C 59% 4.0 mph ENE6.4 kmh ENE 12.0 mph19.3 kmh 29.94 in1013.9 mb 0.00 in0.0 mm 0.00 in0.0 mm 0.00 in0.0 mm
02:00 PM 96.8°F36.0°C 80.1°F26.7°C 59% 4.0 mph NE6.4 kmh NE 12.0 mph19.3 kmh 29.94 in1013.9 mb 0.00 in0.0 mm 0.00 in0.0 mm 0.00 in0.0 mm
01:55 PM 96.3°F35.7°C 80.7°F27.1°C 61% 4.0 mph NE6.4 kmh NE 10.0 mph16.1 kmh 29.94 in1013.9 mb 0.00 in0.0 mm 0.00 in0.0 mm 0.00 in0.0 mm
01:50 PM 96.3°F35.7°C 79.1°F26.2°C 58% 4.0 mph NE6.4 kmh NE 10.0 mph16.1 kmh 29.95 in1014.2 mb 0.00 in0.0 mm 0.00 in0.0 mm 0.00 in0.0 mm
01:45 PM 96.1°F35.6°C 80.5°F26.9°C 61% 3.0 mph ENE4.8 kmh ENE 9.0 mph14.5 kmh 29.95 in1014.2 mb 0.00 in0.0 mm 0.00 in0.0 mm 0.00 in0.0 mm
01:40 PM 95.7°F35.4°C 80.6°F27.0°C 62% 5.0 mph NE8.0 kmh NE 10.0 mph16.1 kmh 29.95 in1014.2 mb 0.00 in0.0 mm 0.00 in0.0 mm 0.00 in0.0 mm
01:35 PM 95.2°F35.1°C 80.1°F26.7°C 62% 5.0 mph NE8.0 kmh NE 12.0 mph19.3 kmh 29.95 in1014.2 mb 0.00 in0.0 mm 0.00 in0.0 mm 0.00 in0.0 mm
01:30 PM 95.1°F35.1°C 80.0°F26.7°C 62% 4.0 mph NE6.4 kmh NE 12.0 mph19.3 kmh 29.95 in1014.2 mb 0.00 in0.0 mm 0.00 in0.0 mm 0.00 in0.0 mm
01:25 PM 95.0°F35.0°C 79.9°F26.6°C 62% 5.0 mph NE8.0 kmh NE 12.0 mph19.3 kmh 29.95 in1014.2 mb 0.00 in0.0 mm 0.00 in0.0 mm 0.00 in0.0 mm
01:20 PM 94.9°F34.9°C 79.8°F26.6°C 62% 5.0 mph ENE8.0 kmh ENE 14.0 mph22.5 kmh 29.95 in1014.2 mb 0.00 in0.0 mm 0.00 in0.0 mm 0.00 in0.0 mm
01:15 PM 94.7°F34.8°C 79.2°F26.2°C 61% 5.0 mph ENE8.0 kmh ENE 14.0 mph22.5 kmh 29.95 in1014.2 mb 0.00 in0.0 mm 0.00 in0.0 mm 0.00 in0.0 mm
01:10 PM 94.2°F34.6°C 80.1°F26.7°C 64% 5.0 mph NE8.0 kmh NE 10.0 mph16.1 kmh 29.95 in1014.2 mb 0.00 in0.0 mm 0.00 in0.0 mm 0.00 in0.0 mm
01:05 PM 93.7°F34.3°C 79.2°F26.2°C 63% 6.0 mph NE9.7 kmh NE 13.0 mph20.9 kmh 29.95 in1014.2 mb 0.00 in0.0 mm 0.00 in0.0 mm 0.00 in0.0 mm
01:00 PM 93.4°F34.1°C 79.4°F26.3°C 64% 5.0 mph NE8.0 kmh NE 13.0 mph20.9 kmh 29.95 in1014.2 mb 0.00 in0.0 mm 0.00 in0.0 mm 0.00 in0.0 mm
12:55 PM 93.1°F33.9°C 79.1°F26.2°C 64% 5.0 mph NE8.0 kmh NE 12.0 mph19.3 kmh 29.95 in1014.2 mb 0.00 in0.0 mm 0.00 in0.0 mm 0.00 in0.0 mm
12:50 PM 93.7°F34.3°C 79.2°F26.2°C 63% 6.0 mph NE9.7 kmh NE 12.0 mph19.3 kmh 29.96 in1014.6 mb 0.00 in0.0 mm 0.00 in0.0 mm 0.00 in0.0 mm
12:45 PM 94.3°F34.6°C 79.8°F26.6°C 63% 5.0 mph NE8.0 kmh NE 12.0 mph19.3 kmh 29.96 in1014.6 mb 0.00 in0.0 mm 0.00 in0.0 mm 0.00 in0.0 mm
12:40 PM 94.0°F34.4°C 79.5°F26.4°C 63% 5.0 mph ENE8.0 kmh ENE 11.0 mph17.7 kmh 29.96 in1014.6 mb 0.00 in0.0 mm 0.00 in0.0 mm 0.00 in0.0 mm
12:35 PM 93.5°F34.2°C 79.0°F26.1°C 63% 5.0 mph ENE8.0 kmh ENE 11.0 mph17.7 kmh 29.96 in1014.6 mb 0.00 in0.0 mm 0.00 in0.0 mm 0.00 in0.0 mm
12:30 PM 92.6°F33.7°C 80.0°F26.7°C 67% 5.0 mph ENE8.0 kmh ENE 12.0 mph19.3 kmh 29.96 in1014.6 mb 0.00 in0.0 mm 0.00 in0.0 mm 0.00 in0.0 mm
12:25 PM 91.7°F33.2°C 80.5°F26.9°C 70% 5.0 mph ENE8.0 kmh ENE 12.0 mph19.3 kmh 29.96 in1014.6 mb 0.00 in0.0 mm 0.00 in0.0 mm 0.00 in0.0 mm
12:20 PM 90.8°F32.7°C 80.1°F26.7°C 71% 4.0 mph ENE6.4 kmh ENE 10.0 mph16.1 kmh 29.97 in1014.9 mb 0.00 in0.0 mm 0.00 in0.0 mm 0.00 in0.0 mm
12:15 PM 90.6°F32.6°C 79.0°F26.1°C 69% 5.0 mph NE8.0 kmh NE 15.0 mph24.1 kmh 29.97 in1014.9 mb 0.00 in0.0 mm 0.00 in0.0 mm 0.00 in0.0 mm
12:10 PM 91.3°F32.9°C 78.8°F26.0°C 67% 6.0 mph NE9.7 kmh NE 15.0 mph24.1 kmh 29.97 in1014.9 mb 0.00 in0.0 mm 0.00 in0.0 mm 0.00 in0.0 mm
12:05 PM 92.4°F33.6°C 78.9°F26.1°C 65% 5.0 mph ENE8.0 kmh ENE 11.0 mph17.7 kmh 29.97 in1014.9 mb 0.00 in0.0 mm 0.00 in0.0 mm 0.00 in0.0 mm
12:00 PM 92.5°F33.6°C 79.9°F26.6°C 67% 5.0 mph NE8.0 kmh NE 13.0 mph20.9 kmh 29.96 in1014.6 mb 0.00 in0.0 mm 0.00 in0.0 mm 0.00 in0.0 mm
11:55 AM 92.1°F33.4°C 79.6°F26.4°C 67% 5.0 mph NE8.0 kmh NE 13.0 mph20.9 kmh 29.96 in1014.6 mb 0.00 in0.0 mm 0.00 in0.0 mm 0.00 in0.0 mm
11:50 AM 91.8°F33.2°C 79.7°F26.5°C 68% 4.0 mph ENE6.4 kmh ENE 11.0 mph17.7 kmh 29.96 in1014.6 mb 0.00 in0.0 mm 0.00 in0.0 mm 0.00 in0.0 mm
11:45 AM 91.0°F32.8°C 79.4°F26.3°C 69% 4.0 mph ENE6.4 kmh ENE 11.0 mph17.7 kmh 29.97 in1014.9 mb 0.00 in0.0 mm 0.00 in0.0 mm 0.00 in0.0 mm
11:40 AM 90.4°F32.4°C 79.3°F26.3°C 70% 4.0 mph ENE6.4 kmh ENE 10.0 mph16.1 kmh 29.97 in1014.9 mb 0.00 in0.0 mm 0.00 in0.0 mm 0.00 in0.0 mm
11:35 AM 89.8°F32.1°C 79.6°F26.4°C 72% 3.0 mph ENE4.8 kmh ENE 7.0 mph11.3 kmh 29.97 in1014.9 mb 0.00 in0.0 mm 0.00 in0.0 mm 0.00 in0.0 mm
11:30 AM 88.6°F31.4°C 78.8°F26.0°C 73% 3.0 mph ENE4.8 kmh ENE 9.0 mph14.5 kmh 29.97 in1014.9 mb 0.00 in0.0 mm 0.00 in0.0 mm 0.00 in0.0 mm
11:25 AM 88.1°F31.2°C 77.9°F25.5°C 72% 4.0 mph E6.4 kmh E 9.0 mph14.5 kmh 29.97 in1014.9 mb 0.00 in0.0 mm 0.00 in0.0 mm 0.00 in0.0 mm
11:20 AM 88.3°F31.3°C 78.1°F25.6°C 72% 4.0 mph E6.4 kmh E 9.0 mph14.5 kmh 29.97 in1014.9 mb 0.00 in0.0 mm 0.00 in0.0 mm 0.00 in0.0 mm
11:15 AM 88.8°F31.6°C 78.6°F25.9°C 72% 5.0 mph ENE8.0 kmh ENE 10.0 mph16.1 kmh 29.97 in1014.9 mb 0.00 in0.0 mm 0.00 in0.0 mm 0.00 in0.0 mm
11:10 AM 88.9°F31.6°C 78.7°F25.9°C 72% 5.0 mph NE8.0 kmh NE 10.0 mph16.1 kmh 29.97 in1014.9 mb 0.00 in0.0 mm 0.00 in0.0 mm 0.00 in0.0 mm
11:05 AM 88.9°F31.6°C 78.7°F25.9°C 72% 5.0 mph NE8.0 kmh NE 11.0 mph17.7 kmh 29.97 in1014.9 mb 0.00 in0.0 mm 0.00 in0.0 mm 0.00 in0.0 mm
11:00 AM 89.2°F31.8°C 78.6°F25.9°C 71% 5.0 mph NE8.0 kmh NE 11.0 mph17.7 kmh 29.98 in1015.2 mb 0.00 in0.0 mm 0.00 in0.0 mm 0.00 in0.0 mm
10:55 AM 89.2°F31.8°C 79.4°F26.3°C 73% 5.0 mph NE8.0 kmh NE 10.0 mph16.1 kmh 29.98 in1015.2 mb 0.00 in0.0 mm 0.00 in0.0 mm 0.00 in0.0 mm
10:50 AM 88.6°F31.4°C 79.2°F26.2°C 74% 4.0 mph NE6.4 kmh NE 10.0 mph16.1 kmh 29.98 in1015.2 mb 0.00 in0.0 mm 0.00 in0.0 mm 0.00 in0.0 mm
10:45 AM 88.1°F31.2°C 78.8°F26.0°C 74% 4.0 mph NE6.4 kmh NE 10.0 mph16.1 kmh 29.98 in1015.2 mb 0.00 in0.0 mm 0.00 in0.0 mm 0.00 in0.0 mm
10:40 AM 87.7°F30.9°C 79.2°F26.2°C 76% 4.0 mph NE6.4 kmh NE 13.0 mph20.9 kmh 29.98 in1015.2 mb 0.00 in0.0 mm 0.00 in0.0 mm 0.00 in0.0 mm
10:35 AM 87.3°F30.7°C 78.4°F25.8°C 75% 4.0 mph NE6.4 kmh NE 13.0 mph20.9 kmh 29.98 in1015.2 mb 0.00 in0.0 mm 0.00 in0.0 mm 0.00 in0.0 mm
10:30 AM 87.0°F30.6°C 78.9°F26.1°C 77% 6.0 mph ENE9.7 kmh ENE 13.0 mph20.9 kmh 29.98 in1015.2 mb 0.00 in0.0 mm 0.00 in0.0 mm 0.00 in0.0 mm
10:25 AM 86.7°F30.4°C 78.6°F25.9°C 77% 6.0 mph NE9.7 kmh NE 14.0 mph22.5 kmh 29.98 in1015.2 mb 0.00 in0.0 mm 0.00 in0.0 mm 0.00 in0.0 mm
10:20 AM 86.6°F30.3°C 78.9°F26.1°C 78% 5.0 mph NE8.0 kmh NE 14.0 mph22.5 kmh 29.98 in1015.2 mb 0.00 in0.0 mm 0.00 in0.0 mm 0.00 in0.0 mm
10:15 AM 86.5°F30.3°C 78.8°F26.0°C 78% 5.0 mph NE8.0 kmh NE 13.0 mph20.9 kmh 29.98 in1015.2 mb 0.00 in0.0 mm 0.00 in0.0 mm 0.00 in0.0 mm
10:10 AM 86.4°F30.2°C 78.7°F25.9°C 78% 5.0 mph NE8.0 kmh NE 15.0 mph24.1 kmh 29.98 in1015.2 mb 0.00 in0.0 mm 0.00 in0.0 mm 0.00 in0.0 mm
10:05 AM 86.3°F30.2°C 78.6°F25.9°C 78% 5.0 mph NE8.0 kmh NE 15.0 mph24.1 kmh 29.98 in1015.2 mb 0.00 in0.0 mm 0.00 in0.0 mm 0.00 in0.0 mm
10:00 AM 86.3°F30.2°C 79.0°F26.1°C 79% 6.0 mph ENE9.7 kmh ENE 12.0 mph19.3 kmh 29.98 in1015.2 mb 0.00 in0.0 mm 0.00 in0.0 mm 0.00 in0.0 mm
09:55 AM 86.0°F30.0°C 78.7°F25.9°C 79% 6.0 mph NE9.7 kmh NE 12.0 mph19.3 kmh 29.99 in1015.6 mb 0.00 in0.0 mm 0.00 in0.0 mm 0.00 in0.0 mm
09:50 AM 85.7°F29.8°C 78.8°F26.0°C 80% 5.0 mph NE8.0 kmh NE 12.0 mph19.3 kmh 29.99 in1015.6 mb 0.00 in0.0 mm 0.00 in0.0 mm 0.00 in0.0 mm
09:45 AM 85.5°F29.7°C 79.0°F26.1°C 81% 5.0 mph ENE8.0 kmh ENE 12.0 mph19.3 kmh 29.99 in1015.6 mb 0.00 in0.0 mm 0.00 in0.0 mm 0.00 in0.0 mm
09:40 AM 85.1°F29.5°C 78.6°F25.9°C 81% 4.0 mph ENE6.4 kmh ENE 12.0 mph19.3 kmh 29.99 in1015.6 mb 0.00 in0.0 mm 0.00 in0.0 mm 0.00 in0.0 mm
09:35 AM 84.5°F29.2°C 79.1°F26.2°C 84% 3.0 mph NE4.8 kmh NE 9.0 mph14.5 kmh 29.99 in1015.6 mb 0.00 in0.0 mm 0.00 in0.0 mm 0.00 in0.0 mm
09:30 AM 84.0°F28.9°C 79.0°F26.1°C 85% 3.0 mph NE4.8 kmh NE 9.0 mph14.5 kmh 29.99 in1015.6 mb 0.00 in0.0 mm 0.00 in0.0 mm 0.00 in0.0 mm
09:25 AM 83.8°F28.8°C 79.2°F26.2°C 86% 3.0 mph NE4.8 kmh NE 8.0 mph12.9 kmh 29.98 in1015.2 mb 0.00 in0.0 mm 0.00 in0.0 mm 0.00 in0.0 mm
09:20 AM 83.2°F28.4°C 78.6°F25.9°C 86% 4.0 mph NE6.4 kmh NE 9.0 mph14.5 kmh 29.98 in1015.2 mb 0.00 in0.0 mm 0.00 in0.0 mm 0.00 in0.0 mm
09:15 AM 82.6°F28.1°C 78.3°F25.7°C 87% 4.0 mph NE6.4 kmh NE 9.0 mph14.5 kmh 29.98 in1015.2 mb 0.00 in0.0 mm 0.00 in0.0 mm 0.00 in0.0 mm
09:10 AM 82.0°F27.8°C 78.1°F25.6°C 88% 4.0 mph NE6.4 kmh NE 8.0 mph12.9 kmh 29.98 in1015.2 mb 0.00 in0.0 mm 0.00 in0.0 mm 0.00 in0.0 mm
09:05 AM 81.3°F27.4°C 78.1°F25.6°C 90% 3.0 mph NE4.8 kmh NE 8.0 mph12.9 kmh 29.98 in1015.2 mb 0.00 in0.0 mm 0.00 in0.0 mm 0.00 in0.0 mm
09:00 AM 80.6°F27.0°C 77.7°F25.4°C 91% 4.0 mph NE6.4 kmh NE 8.0 mph12.9 kmh 29.99 in1015.6 mb 0.00 in0.0 mm 0.00 in0.0 mm 0.00 in0.0 mm
08:55 AM 79.9°F26.6°C 77.4°F25.2°C 92% 4.0 mph NE6.4 kmh NE 7.0 mph11.3 kmh 29.99 in1015.6 mb 0.00 in0.0 mm 0.00 in0.0 mm 0.00 in0.0 mm
08:50 AM 79.3°F26.3°C 77.1°F25.1°C 93% 4.0 mph NE6.4 kmh NE 7.0 mph11.3 kmh 29.99 in1015.6 mb 0.00 in0.0 mm 0.00 in0.0 mm 0.00 in0.0 mm
08:45 AM 78.7°F25.9°C 76.5°F24.7°C 93% 4.0 mph NNE6.4 kmh NNE 10.0 mph16.1 kmh 29.99 in1015.6 mb 0.00 in0.0 mm 0.00 in0.0 mm 0.00 in0.0 mm
08:40 AM 78.2°F25.7°C 76.3°F24.6°C 94% 3.0 mph NNE4.8 kmh NNE 10.0 mph16.1 kmh 29.99 in1015.6 mb 0.00 in0.0 mm 0.00 in0.0 mm 0.00 in0.0 mm
08:35 AM 77.8°F25.4°C 75.9°F24.4°C 94% 2.0 mph NNE3.2 kmh NNE 6.0 mph9.7 kmh 29.99 in1015.6 mb 0.00 in0.0 mm 0.00 in0.0 mm 0.00 in0.0 mm
08:30 AM 77.5°F25.3°C 76.0°F24.4°C 95% 4.0 mph NE6.4 kmh NE 9.0 mph14.5 kmh 29.99 in1015.6 mb 0.00 in0.0 mm 0.00 in0.0 mm 0.00 in0.0 mm
08:25 AM 77.2°F25.1°C 75.7°F24.3°C 95% 4.0 mph NE6.4 kmh NE 9.0 mph14.5 kmh 29.99 in1015.6 mb 0.00 in0.0 mm 0.00 in0.0 mm 0.00 in0.0 mm
08:20 AM 76.9°F24.9°C 75.4°F24.1°C 95% 4.0 mph NE6.4 kmh NE 9.0 mph14.5 kmh 30.00 in1015.9 mb 0.00 in0.0 mm 0.00 in0.0 mm 0.00 in0.0 mm
08:15 AM 76.8°F24.9°C 75.3°F24.1°C 95% 4.0 mph NE6.4 kmh NE 9.0 mph14.5 kmh 30.00 in1015.9 mb 0.00 in0.0 mm 0.00 in0.0 mm 0.00 in0.0 mm
08:10 AM 76.6°F24.8°C 75.1°F23.9°C 95% 4.0 mph NE6.4 kmh NE 9.0 mph14.5 kmh 30.00 in1015.9 mb 0.00 in0.0 mm 0.00 in0.0 mm 0.00 in0.0 mm
08:05 AM 76.5°F24.7°C 75.0°F23.9°C 95% 4.0 mph NE6.4 kmh NE 9.0 mph14.5 kmh 30.00 in1015.9 mb 0.00 in0.0 mm 0.00 in0.0 mm 0.00 in0.0 mm
08:00 AM 76.4°F24.7°C 74.9°F23.8°C 95% 4.0 mph NE6.4 kmh NE 9.0 mph14.5 kmh 29.99 in1015.6 mb 0.00 in0.0 mm 0.00 in0.0 mm 0.00 in0.0 mm
07:55 AM 76.3°F24.6°C 74.8°F23.8°C 95% 4.0 mph NE6.4 kmh NE 9.0 mph14.5 kmh 29.99 in1015.6 mb 0.00 in0.0 mm 0.00 in0.0 mm 0.00 in0.0 mm
07:50 AM 76.2°F24.6°C 74.7°F23.7°C 95% 4.0 mph NE6.4 kmh NE 9.0 mph14.5 kmh 29.99 in1015.6 mb 0.00 in0.0 mm 0.00 in0.0 mm 0.00 in0.0 mm
07:45 AM 76.2°F24.6°C 74.7°F23.7°C 95% 4.0 mph NE6.4 kmh NE 9.0 mph14.5 kmh 29.98 in1015.2 mb 0.00 in0.0 mm 0.00 in0.0 mm 0.00 in0.0 mm
07:40 AM 76.1°F24.5°C 74.6°F23.7°C 95% 4.0 mph NE6.4 kmh NE 9.0 mph14.5 kmh 29.98 in1015.2 mb 0.00 in0.0 mm 0.00 in0.0 mm 0.00 in0.0 mm
07:35 AM 76.1°F24.5°C 74.6°F23.7°C 95% 4.0 mph NE6.4 kmh NE 9.0 mph14.5 kmh 29.98 in1015.2 mb 0.00 in0.0 mm 0.00 in0.0 mm 0.00 in0.0 mm
07:30 AM 76.0°F24.4°C 74.5°F23.6°C 95% 4.0 mph NE6.4 kmh NE 9.0 mph14.5 kmh 29.98 in1015.2 mb 0.00 in0.0 mm 0.00 in0.0 mm 0.00 in0.0 mm
07:25 AM 75.9°F24.4°C 74.4°F23.6°C 95% 4.0 mph NE6.4 kmh NE 9.0 mph14.5 kmh 29.98 in1015.2 mb 0.00 in0.0 mm 0.00 in0.0 mm 0.00 in0.0 mm
07:20 AM 75.8°F24.3°C 74.3°F23.5°C 95% 4.0 mph NE6.4 kmh NE 9.0 mph14.5 kmh 29.98 in1015.2 mb 0.00 in0.0 mm 0.00 in0.0 mm 0.00 in0.0 mm
07:15 AM 75.7°F24.3°C 74.2°F23.4°C 95% 4.0 mph NE6.4 kmh NE 9.0 mph14.5 kmh 29.98 in1015.2 mb 0.00 in0.0 mm 0.00 in0.0 mm 0.00 in0.0 mm
07:10 AM 75.7°F24.3°C 74.2°F23.4°C 95% 4.0 mph NE6.4 kmh NE 9.0 mph14.5 kmh 29.98 in1015.2 mb 0.00 in0.0 mm 0.00 in0.0 mm 0.00 in0.0 mm
07:05 AM 75.6°F24.2°C 74.1°F23.4°C 95% 4.0 mph NE6.4 kmh NE 9.0 mph14.5 kmh 29.98 in1015.2 mb 0.00 in0.0 mm 0.00 in0.0 mm 0.00 in0.0 mm
07:00 AM 75.6°F24.2°C 73.8°F23.2°C 94% 4.0 mph NE6.4 kmh NE 9.0 mph14.5 kmh 29.98 in1015.2 mb 0.00 in0.0 mm 0.00 in0.0 mm 0.00 in0.0 mm
06:55 AM 75.6°F24.2°C 73.8°F23.2°C 94% 4.0 mph NE6.4 kmh NE 9.0 mph14.5 kmh 29.98 in1015.2 mb 0.00 in0.0 mm 0.00 in0.0 mm 0.00 in0.0 mm
06:50 AM 75.5°F24.2°C 73.7°F23.2°C 94% 4.0 mph NE6.4 kmh NE 9.0 mph14.5 kmh 29.98 in1015.2 mb 0.00 in0.0 mm 0.00 in0.0 mm 0.00 in0.0 mm
06:45 AM 75.5°F24.2°C 73.7°F23.2°C 94% 4.0 mph NE6.4 kmh NE 9.0 mph14.5 kmh 29.98 in1015.2 mb 0.00 in0.0 mm 0.00 in0.0 mm 0.00 in0.0 mm
06:40 AM 75.5°F24.2°C 73.7°F23.2°C 94% 4.0 mph NE6.4 kmh NE 9.0 mph14.5 kmh 29.97 in1014.9 mb 0.00 in0.0 mm 0.00 in0.0 mm 0.00 in0.0 mm
06:35 AM 75.5°F24.2°C 73.7°F23.2°C 94% 4.0 mph NE6.4 kmh NE 9.0 mph14.5 kmh 29.98 in1015.2 mb 0.00 in0.0 mm 0.00 in0.0 mm 0.00 in0.0 mm
06:30 AM 75.5°F24.2°C 73.7°F23.2°C 94% 4.0 mph NE6.4 kmh NE 9.0 mph14.5 kmh 29.97 in1014.9 mb 0.00 in0.0 mm 0.00 in0.0 mm 0.00 in0.0 mm
06:25 AM 75.5°F24.2°C 73.7°F23.2°C 94% 4.0 mph NE6.4 kmh NE 9.0 mph14.5 kmh 29.98 in1015.2 mb 0.00 in0.0 mm 0.00 in0.0 mm 0.00 in0.0 mm
06:20 AM 75.5°F24.2°C 73.7°F23.2°C 94% 4.0 mph NE6.4 kmh NE 9.0 mph14.5 kmh 29.98 in1015.2 mb 0.00 in0.0 mm 0.00 in0.0 mm 0.00 in0.0 mm
06:15 AM 75.5°F24.2°C 73.7°F23.2°C 94% 4.0 mph NE6.4 kmh NE 9.0 mph14.5 kmh 29.97 in1014.9 mb 0.00 in0.0 mm 0.00 in0.0 mm 0.00 in0.0 mm
06:10 AM 75.5°F24.2°C 73.7°F23.2°C 94% 4.0 mph NE6.4 kmh NE 9.0 mph14.5 kmh 29.97 in1014.9 mb 0.00 in0.0 mm 0.00 in0.0 mm 0.00 in0.0 mm
06:05 AM 75.5°F24.2°C 73.7°F23.2°C 94% 4.0 mph NE6.4 kmh NE 9.0 mph14.5 kmh 29.97 in1014.9 mb 0.00 in0.0 mm 0.00 in0.0 mm 0.00 in0.0 mm
06:00 AM 75.4°F24.1°C 73.6°F23.1°C 94% 4.0 mph NE6.4 kmh NE 9.0 mph14.5 kmh 29.97 in1014.9 mb 0.00 in0.0 mm 0.00 in0.0 mm 0.00 in0.0 mm
05:55 AM 75.4°F24.1°C 73.6°F23.1°C 94% 4.0 mph NE6.4 kmh NE 9.0 mph14.5 kmh 29.97 in1014.9 mb 0.00 in0.0 mm 0.00 in0.0 mm 0.00 in0.0 mm
05:50 AM 75.3°F24.1°C 73.5°F23.1°C 94% 4.0 mph NE6.4 kmh NE 9.0 mph14.5 kmh 29.97 in1014.9 mb 0.00 in0.0 mm 0.00 in0.0 mm 0.00 in0.0 mm
05:45 AM 75.3°F24.1°C 73.5°F23.1°C 94% 4.0 mph NE6.4 kmh NE 9.0 mph14.5 kmh 29.97 in1014.9 mb 0.00 in0.0 mm 0.00 in0.0 mm 0.00 in0.0 mm
05:40 AM 75.3°F24.1°C 73.5°F23.1°C 94% 4.0 mph NE6.4 kmh NE 9.0 mph14.5 kmh 29.97 in1014.9 mb 0.00 in0.0 mm 0.00 in0.0 mm 0.00 in0.0 mm
05:35 AM 75.3°F24.1°C 73.5°F23.1°C 94% 4.0 mph NE6.4 kmh NE 9.0 mph14.5 kmh 29.97 in1014.9 mb 0.00 in0.0 mm 0.00 in0.0 mm 0.00 in0.0 mm
05:30 AM 75.4°F24.1°C 73.6°F23.1°C 94% 4.0 mph NE6.4 kmh NE 9.0 mph14.5 kmh 29.97 in1014.9 mb 0.00 in0.0 mm 0.00 in0.0 mm 0.00 in0.0 mm
05:25 AM 75.4°F24.1°C 73.6°F23.1°C 94% 4.0 mph NE6.4 kmh NE 9.0 mph14.5 kmh 29.97 in1014.9 mb 0.00 in0.0 mm 0.00 in0.0 mm 0.00 in0.0 mm
05:20 AM 75.4°F24.1°C 73.6°F23.1°C 94% 4.0 mph NE6.4 kmh NE 9.0 mph14.5 kmh 29.97 in1014.9 mb 0.00 in0.0 mm 0.00 in0.0 mm 0.00 in0.0 mm
05:15 AM 75.4°F24.1°C 73.6°F23.1°C 94% 4.0 mph NE6.4 kmh NE 9.0 mph14.5 kmh 29.97 in1014.9 mb 0.00 in0.0 mm 0.00 in0.0 mm 0.00 in0.0 mm
05:10 AM 75.3°F24.1°C 73.5°F23.1°C 94% 4.0 mph NE6.4 kmh NE 9.0 mph14.5 kmh 29.97 in1014.9 mb 0.00 in0.0 mm 0.00 in0.0 mm 0.00 in0.0 mm
05:05 AM 75.3°F24.1°C 73.5°F23.1°C 94% 4.0 mph NE6.4 kmh NE 9.0 mph14.5 kmh 29.97 in1014.9 mb 0.00 in0.0 mm 0.00 in0.0 mm 0.00 in0.0 mm
05:00 AM 75.3°F24.1°C 73.5°F23.1°C 94% 4.0 mph NE6.4 kmh NE 9.0 mph14.5 kmh 29.97 in1014.9 mb 0.00 in0.0 mm 0.00 in0.0 mm 0.00 in0.0 mm
04:55 AM 75.3°F24.1°C 73.5°F23.1°C 94% 4.0 mph NE6.4 kmh NE 9.0 mph14.5 kmh 29.96 in1014.6 mb 0.00 in0.0 mm 0.00 in0.0 mm 0.00 in0.0 mm
04:50 AM 75.3°F24.1°C 73.5°F23.1°C 94% 4.0 mph NE6.4 kmh NE 9.0 mph14.5 kmh 29.96 in1014.6 mb 0.00 in0.0 mm 0.00 in0.0 mm 0.00 in0.0 mm
04:45 AM 75.4°F24.1°C 73.6°F23.1°C 94% 4.0 mph NE6.4 kmh NE 9.0 mph14.5 kmh 29.96 in1014.6 mb 0.00 in0.0 mm 0.00 in0.0 mm 0.00 in0.0 mm
04:40 AM 75.4°F24.1°C 73.6°F23.1°C 94% 4.0 mph NE6.4 kmh NE 9.0 mph14.5 kmh 29.96 in1014.6 mb 0.00 in0.0 mm 0.00 in0.0 mm 0.00 in0.0 mm
04:35 AM 75.4°F24.1°C 73.6°F23.1°C 94% 4.0 mph NE6.4 kmh NE 9.0 mph14.5 kmh 29.96 in1014.6 mb 0.00 in0.0 mm 0.00 in0.0 mm 0.00 in0.0 mm
04:30 AM 75.3°F24.1°C 73.1°F22.8°C 93% 4.0 mph NE6.4 kmh NE 9.0 mph14.5 kmh 29.96 in1014.6 mb 0.00 in0.0 mm 0.00 in0.0 mm 0.00 in0.0 mm
04:25 AM 75.4°F24.1°C 73.2°F22.9°C 93% 4.0 mph NE6.4 kmh NE 9.0 mph14.5 kmh 29.96 in1014.6 mb 0.00 in0.0 mm 0.00 in0.0 mm 0.00 in0.0 mm
04:20 AM 75.4°F24.1°C 73.2°F22.9°C 93% 4.0 mph NE6.4 kmh NE 9.0 mph14.5 kmh 29.96 in1014.6 mb 0.00 in0.0 mm 0.00 in0.0 mm 0.00 in0.0 mm
04:15 AM 75.3°F24.1°C 73.1°F22.8°C 93% 4.0 mph NE6.4 kmh NE 9.0 mph14.5 kmh 29.96 in1014.6 mb 0.00 in0.0 mm 0.00 in0.0 mm 0.00 in0.0 mm
04:10 AM 75.3°F24.1°C 73.1°F22.8°C 93% 4.0 mph NE6.4 kmh NE 9.0 mph14.5 kmh 29.97 in1014.9 mb 0.00 in0.0 mm 0.00 in0.0 mm 0.00 in0.0 mm
04:05 AM 75.2°F24.0°C 73.0°F22.8°C 93% 4.0 mph NE6.4 kmh NE 9.0 mph14.5 kmh 29.97 in1014.9 mb 0.00 in0.0 mm 0.00 in0.0 mm 0.00 in0.0 mm
04:00 AM 75.2°F24.0°C 73.0°F22.8°C 93% 4.0 mph NE6.4 kmh NE 9.0 mph14.5 kmh 29.96 in1014.6 mb 0.00 in0.0 mm 0.00 in0.0 mm 0.00 in0.0 mm
03:55 AM 75.1°F23.9°C 72.9°F22.7°C 93% 4.0 mph NE6.4 kmh NE 9.0 mph14.5 kmh 29.96 in1014.6 mb 0.00 in0.0 mm 0.00 in0.0 mm 0.00 in0.0 mm
03:50 AM 75.2°F24.0°C 73.0°F22.8°C 93% 4.0 mph NE6.4 kmh NE 9.0 mph14.5 kmh 29.97 in1014.9 mb 0.00 in0.0 mm 0.00 in0.0 mm 0.00 in0.0 mm
03:45 AM 75.1°F23.9°C 72.9°F22.7°C 93% 4.0 mph NE6.4 kmh NE 9.0 mph14.5 kmh 29.97 in1014.9 mb 0.00 in0.0 mm 0.00 in0.0 mm 0.00 in0.0 mm
03:40 AM 75.1°F23.9°C 72.9°F22.7°C 93% 4.0 mph NE6.4 kmh NE 9.0 mph14.5 kmh 29.97 in1014.9 mb 0.00 in0.0 mm 0.00 in0.0 mm 0.00 in0.0 mm
03:35 AM 75.1°F23.9°C 72.9°F22.7°C 93% 4.0 mph NE6.4 kmh NE 9.0 mph14.5 kmh 29.98 in1015.2 mb 0.00 in0.0 mm 0.00 in0.0 mm 0.00 in0.0 mm
03:30 AM 75.1°F23.9°C 72.6°F22.6°C 92% 4.0 mph NE6.4 kmh NE 9.0 mph14.5 kmh 29.98 in1015.2 mb 0.00 in0.0 mm 0.00 in0.0 mm 0.00 in0.0 mm
03:25 AM 75.2°F24.0°C 72.7°F22.6°C 92% 4.0 mph NE6.4 kmh NE 9.0 mph14.5 kmh 29.98 in1015.2 mb 0.00 in0.0 mm 0.00 in0.0 mm 0.00 in0.0 mm
03:20 AM 75.2°F24.0°C 72.7°F22.6°C 92% 4.0 mph NE6.4 kmh NE 9.0 mph14.5 kmh 29.98 in1015.2 mb 0.00 in0.0 mm 0.00 in0.0 mm 0.00 in0.0 mm
03:15 AM 75.3°F24.1°C 72.8°F22.7°C 92% 4.0 mph NE6.4 kmh NE 9.0 mph14.5 kmh 29.98 in1015.2 mb 0.00 in0.0 mm 0.00 in0.0 mm 0.00 in0.0 mm
03:10 AM 75.3°F24.1°C 72.8°F22.7°C 92% 4.0 mph NE6.4 kmh NE 9.0 mph14.5 kmh 29.98 in1015.2 mb 0.00 in0.0 mm 0.00 in0.0 mm 0.00 in0.0 mm
03:05 AM 75.3°F24.1°C 72.8°F22.7°C 92% 4.0 mph NE6.4 kmh NE 9.0 mph14.5 kmh 29.98 in1015.2 mb 0.00 in0.0 mm 0.00 in0.0 mm 0.00 in0.0 mm
03:00 AM 75.4°F24.1°C 72.9°F22.7°C 92% 4.0 mph NE6.4 kmh NE 9.0 mph14.5 kmh 29.98 in1015.2 mb 0.00 in0.0 mm 0.00 in0.0 mm 0.00 in0.0 mm
02:55 AM 75.5°F24.2°C 73.0°F22.8°C 92% 4.0 mph NE6.4 kmh NE 9.0 mph14.5 kmh 29.97 in1014.9 mb 0.00 in0.0 mm 0.00 in0.0 mm 0.00 in0.0 mm
02:50 AM 75.5°F24.2°C 72.7°F22.6°C 91% 4.0 mph NE6.4 kmh NE 9.0 mph14.5 kmh 29.98 in1015.2 mb 0.00 in0.0 mm 0.00 in0.0 mm 0.00 in0.0 mm
02:45 AM 75.6°F24.2°C 73.1°F22.8°C 92% 4.0 mph NE6.4 kmh NE 9.0 mph14.5 kmh 29.98 in1015.2 mb 0.00 in0.0 mm 0.00 in0.0 mm 0.00 in0.0 mm
02:40 AM 75.6°F24.2°C 72.8°F22.7°C 91% 4.0 mph NE6.4 kmh NE 9.0 mph14.5 kmh 29.98 in1015.2 mb 0.00 in0.0 mm 0.00 in0.0 mm 0.00 in0.0 mm
02:35 AM 75.7°F24.3°C 72.9°F22.7°C 91% 4.0 mph NE6.4 kmh NE 9.0 mph14.5 kmh 29.98 in1015.2 mb 0.00 in0.0 mm 0.00 in0.0 mm 0.00 in0.0 mm
02:30 AM 75.6°F24.2°C 72.8°F22.7°C 91% 4.0 mph NE6.4 kmh NE 9.0 mph14.5 kmh 29.98 in1015.2 mb 0.00 in0.0 mm 0.00 in0.0 mm 0.00 in0.0 mm
02:25 AM 75.6°F24.2°C 72.8°F22.7°C 91% 4.0 mph NE6.4 kmh NE 9.0 mph14.5 kmh 29.98 in1015.2 mb 0.00 in0.0 mm 0.00 in0.0 mm 0.00 in0.0 mm
02:20 AM 75.6°F24.2°C 72.8°F22.7°C 91% 4.0 mph NE6.4 kmh NE 9.0 mph14.5 kmh 29.98 in1015.2 mb 0.00 in0.0 mm 0.00 in0.0 mm 0.00 in0.0 mm
02:15 AM 75.6°F24.2°C 72.8°F22.7°C 91% 4.0 mph NE6.4 kmh NE 9.0 mph14.5 kmh 29.98 in1015.2 mb 0.00 in0.0 mm 0.00 in0.0 mm 0.00 in0.0 mm
02:10 AM 75.5°F24.2°C 72.7°F22.6°C 91% 4.0 mph NE6.4 kmh NE 9.0 mph14.5 kmh 29.98 in1015.2 mb 0.00 in0.0 mm 0.00 in0.0 mm 0.00 in0.0 mm
02:05 AM 75.5°F24.2°C 72.7°F22.6°C 91% 4.0 mph NE6.4 kmh NE 9.0 mph14.5 kmh 29.98 in1015.2 mb 0.00 in0.0 mm 0.00 in0.0 mm 0.00 in0.0 mm
02:00 AM 75.5°F24.2°C 72.7°F22.6°C 91% 4.0 mph NE6.4 kmh NE 9.0 mph14.5 kmh 29.98 in1015.2 mb 0.00 in0.0 mm 0.00 in0.0 mm 0.00 in0.0 mm
01:55 AM 75.5°F24.2°C 72.7°F22.6°C 91% 4.0 mph NE6.4 kmh NE 9.0 mph14.5 kmh 29.98 in1015.2 mb 0.00 in0.0 mm 0.00 in0.0 mm 0.00 in0.0 mm
01:50 AM 75.4°F24.1°C 72.6°F22.6°C 91% 4.0 mph NE6.4 kmh NE 9.0 mph14.5 kmh 29.98 in1015.2 mb 0.00 in0.0 mm 0.00 in0.0 mm 0.00 in0.0 mm
01:45 AM 75.3°F24.1°C 72.5°F22.5°C 91% 4.0 mph NE6.4 kmh NE 9.0 mph14.5 kmh 29.98 in1015.2 mb 0.00 in0.0 mm 0.00 in0.0 mm 0.00 in0.0 mm
01:40 AM 75.3°F24.1°C 72.5°F22.5°C 91% 4.0 mph NE6.4 kmh NE 9.0 mph14.5 kmh 29.98 in1015.2 mb 0.00 in0.0 mm 0.00 in0.0 mm 0.00 in0.0 mm
01:35 AM 75.2°F24.0°C 72.4°F22.4°C 91% 4.0 mph NE6.4 kmh NE 9.0 mph14.5 kmh 29.99 in1015.6 mb 0.00 in0.0 mm 0.00 in0.0 mm 0.00 in0.0 mm
01:30 AM 75.3°F24.1°C 72.2°F22.3°C 90% 4.0 mph NE6.4 kmh NE 9.0 mph14.5 kmh 29.99 in1015.6 mb 0.00 in0.0 mm 0.00 in0.0 mm 0.00 in0.0 mm
01:25 AM 75.3°F24.1°C 72.2°F22.3°C 90% 4.0 mph NE6.4 kmh NE 9.0 mph14.5 kmh 29.99 in1015.6 mb 0.00 in0.0 mm 0.00 in0.0 mm 0.00 in0.0 mm
01:20 AM 75.5°F24.2°C 72.4°F22.4°C 90% 4.0 mph NE6.4 kmh NE 9.0 mph14.5 kmh 29.99 in1015.6 mb 0.00 in0.0 mm 0.00 in0.0 mm 0.00 in0.0 mm
01:15 AM 75.6°F24.2°C 72.5°F22.5°C 90% 4.0 mph NE6.4 kmh NE 9.0 mph14.5 kmh 29.99 in1015.6 mb 0.00 in0.0 mm 0.00 in0.0 mm 0.00 in0.0 mm
01:10 AM 75.7°F24.3°C 72.6°F22.6°C 90% 4.0 mph NE6.4 kmh NE 9.0 mph14.5 kmh 29.99 in1015.6 mb 0.00 in0.0 mm 0.00 in0.0 mm 0.00 in0.0 mm
01:05 AM 75.8°F24.3°C 72.7°F22.6°C 90% 4.0 mph NE6.4 kmh NE 9.0 mph14.5 kmh 29.99 in1015.6 mb 0.00 in0.0 mm 0.00 in0.0 mm 0.00 in0.0 mm
01:00 AM 75.9°F24.4°C 72.4°F22.4°C 89% 4.0 mph NE6.4 kmh NE 9.0 mph14.5 kmh 29.99 in1015.6 mb 0.00 in0.0 mm 0.00 in0.0 mm 0.00 in0.0 mm
12:55 AM 76.0°F24.4°C 72.5°F22.5°C 89% 4.0 mph NE6.4 kmh NE 9.0 mph14.5 kmh 29.99 in1015.6 mb 0.00 in0.0 mm 0.00 in0.0 mm 0.00 in0.0 mm
12:50 AM 76.0°F24.4°C 72.5°F22.5°C 89% 4.0 mph NE6.4 kmh NE 9.0 mph14.5 kmh 29.99 in1015.6 mb 0.00 in0.0 mm 0.00 in0.0 mm 0.00 in0.0 mm
12:45 AM 76.1°F24.5°C 72.6°F22.6°C 89% 4.0 mph NE6.4 kmh NE 9.0 mph14.5 kmh 29.99 in1015.6 mb 0.00 in0.0 mm 0.00 in0.0 mm 0.00 in0.0 mm
12:40 AM 76.2°F24.6°C 72.4°F22.4°C 88% 4.0 mph NE6.4 kmh NE 9.0 mph14.5 kmh 29.99 in1015.6 mb 0.00 in0.0 mm 0.00 in0.0 mm 0.00 in0.0 mm
12:35 AM 76.3°F24.6°C 72.5°F22.5°C 88% 4.0 mph NE6.4 kmh NE 9.0 mph14.5 kmh 29.99 in1015.6 mb 0.00 in0.0 mm 0.00 in0.0 mm 0.00 in0.0 mm
12:30 AM 76.5°F24.7°C 72.3°F22.4°C 87% 4.0 mph NE6.4 kmh NE 9.0 mph14.5 kmh 30.00 in1015.9 mb 0.00 in0.0 mm 0.00 in0.0 mm 0.00 in0.0 mm
12:25 AM 76.6°F24.8°C 72.4°F22.4°C 87% 4.0 mph NE6.4 kmh NE 9.0 mph14.5 kmh 30.00 in1015.9 mb 0.00 in0.0 mm 0.00 in0.0 mm 0.00 in0.0 mm
12:20 AM 76.9°F24.9°C 72.7°F22.6°C 87% 4.0 mph NE6.4 kmh NE 9.0 mph14.5 kmh 30.00 in1015.9 mb 0.00 in0.0 mm 0.00 in0.0 mm 0.00 in0.0 mm
12:15 AM 77.1°F25.1°C 72.6°F22.6°C 86% 4.0 mph NE6.4 kmh NE 9.0 mph14.5 kmh 30.00 in1015.9 mb 0.00 in0.0 mm 0.00 in0.0 mm 0.00 in0.0 mm
12:10 AM 77.3°F25.2°C 72.8°F22.7°C 86% 4.0 mph NE6.4 kmh NE 9.0 mph14.5 kmh 30.00 in1015.9 mb 0.00 in0.0 mm 0.00 in0.0 mm 0.00 in0.0 mm
12:05 AM 77.5°F25.3°C 73.0°F22.8°C 86% 4.0 mph NE6.4 kmh NE 9.0 mph14.5 kmh 30.00 in1015.9 mb 0.00 in0.0 mm 0.00 in0.0 mm 0.00 in0.0 mm
12:00 AM 77.7°F25.4°C 72.8°F22.7°C 85% 4.0 mph NE6.4 kmh NE 9.0 mph14.5 kmh 30.00 in1015.9 mb 0.00 in0.0 mm 0.00 in0.0 mm 0.00 in0.0 mm